Impacts TAF Board INFO
FOR SITUATIONAL AWARENESS. NOT TO BE USED FOR FLIGHT PLANNING PURPOSES.
IDs:

KDCA - Washington/National, VA, US

Issued at 2040 UTC 22 Aug 2017
Updated at 2235 UTC 22 Aug 2017
Potential Impact None Slight Moderate High
Time2152Z 22/23Z 23/00Z 23/01Z 23/02Z 23/03Z 23/04Z 23/05Z 23/06Z 23/07Z 23/08Z 23/09Z 23/10Z 23/11Z>>
Type OBS PRVL PRVL PRVL PRVL PRVL PRVL PRVL PRVL PRVL PRVL PRVL PRVL PRVL
VIS 10 >6 >6 >6 >6 >6 >6 >6 >6 >6 >6 >6 >6 >6
CIG -- 50 50 50 50 50 50 50 50 50 50 50 50 100
Cover FEW BKN BKN BKN BKN BKN BKN BKN BKN BKN BKN BKN BKN BKN
FltCat VFR VFR VFR VFR VFR VFR VFR VFR VFR VFR VFR VFR VFR VFR
WX -- -- VCSH VCSH VCSH VCSH VCSH -- -- -- -- -- -- --
WDir 180 190 190 190 190 190 190 240 240 240 240 240 240 330
WSpd 11 16 10 10 10 10 10 6 6 6 6 6 6 7
WGst 22 23 19 19 19 19 19 -- -- -- -- -- -- --

Raw TAF
KDCA 222040Z 2221/2318 19016G23KT P6SM BKN050
  FM230000 19010G19KT P6SM VCSH BKN050 BKN250
  FM230500 24006KT P6SM BKN050 BKN250
  FM231100 33007KT P6SM BKN100


Raw METAR
KDCA 222152Z 18011G22KT 10SM FEW055 FEW250 33/22 A2984 RMK AO2 SLP105 T03280217
KDCA 222052Z 19016G22KT 10SM FEW050 33/22 A2985 RMK AO2 SLP109 T03330222 56034
KDCA 221952Z 19019G24KT 10SM SCT050 33/23 A2988 RMK AO2 SLP117 T03330228

METAR Board
Radar Display
Forecast Discussion

FOR SITUATIONAL AWARENESS. NOT TO BE USED FOR FLIGHT PLANNING PURPOSES.